• Join FlightAware (Why Join?)
  • Login
  • US Flag 
09:26AM EDT


 

Airport Tracker/Info


-or-


 

Live Flight TrackerFlight Track Log ✈ RPA3228 ✈ 04-Jul-2013 ✈ KDCA - KBUF

Flight Track Log - Related Links

Times and Time Zones

All times are in EDT time to prevent confusion due to time zone crossing. See the RPA3228 flight status page for this flight to view local times or setup timezone preferences in your user account.

Time Position Orientation Groundspeed Altitude Reporting Facility
EDT Latitude Longitude Course Direction KTS MPH feet Rate Location/Type
10:22AM 38.8167 -77.0333 337° Northwest 150 173 1,500  Level Potomac TRACON
10:24AM 39.0812 -77.1572 339° North  Level FlightAware Approximate
10:24AM 38.7306 -77.1350 223° Southwest 189 217 6,600  Level Washington Center
10:25AM 39.1617 -77.2005 330° Northwest  Level FlightAware Approximate
10:25AM 38.7208 -77.2308 263° West 223 257 9,300  Level Washington Center
10:26AM 39.2447 -77.2396 337° Northwest  Level FlightAware Approximate
10:26AM 38.7719 -77.3064 311° West 235 270 11,600  Level Washington Center
10:27AM 39.3265 -77.2850 337° Northwest  Level FlightAware Approximate
10:27AM 38.8397 -77.3747 322° Northwest 264 304 13,700  Level Washington Center
10:28AM 38.9200 -77.4514 323° Northwest 307 353 14,700 1,320 Climbing Washington Center
10:29AM 39.0236 -77.4833 347° North 353 406 16,300 1,140 Climbing Washington Center
10:30AM 39.1361 -77.4781 North 372 428 17,000 300 Climbing Washington Center
10:31AM 39.2467 -77.4731 North 386 444 17,000 60 Level Washington Center
10:32AM 39.3594 -77.4678 North 391 450 17,200 660 Climbing Washington Center
10:33AM 39.4719 -77.4628 North 396 456 18,400 1,500 Climbing Washington Center
10:35AM 39.7344 -77.4556 North 423 487 22,200 1,620 Climbing New York Center
10:36AM 39.8617 -77.4539 North 433 498 24,000 1,560 Climbing New York Center
10:37AM 39.9850 -77.4494 North 445 512 25,400 960 Climbing New York Center
10:38AM 40.1331 -77.4475 North 462 532 26,000 300 Climbing New York Center
10:39AM 40.2647 -77.4439 North 467 537 26,000  Level New York Center
10:40AM 40.3961 -77.4428 360° North 467 537 26,000  Level New York Center
10:41AM 40.5253 -77.4417 360° North 467 537 26,000  Level New York Center
10:42AM 40.6528 -77.4375 North 462 532 26,000  Level New York Center
10:43AM 40.7819 -77.4367 360° North 462 532 26,000  Level New York Center
10:44AM 40.9114 -77.4328 North 462 532 26,000 -60 Level New York Center
10:45AM 41.0367 -77.4311 North 462 532 25,900 -420 Descending New York Center
10:46AM 41.1625 -77.4519 353° North 462 532 25,200 -780 Descending New York Center
10:48AM 41.3367 -77.5714 333° Northwest 460 529 24,000 -480 Descending Cleveland Center
10:49AM 41.4408 -77.6497 331° Northwest 443 510 24,000  Level Cleveland Center
10:50AM 41.5514 -77.7253 333° Northwest 437 503 24,000 -300 Level Cleveland Center
10:51AM 41.6575 -77.8011 332° Northwest 437 503 23,400 -900 Descending Cleveland Center
10:52AM 41.7739 -77.8822 333° Northwest 443 510 22,200 -720 Descending Cleveland Center
10:53AM 41.8778 -77.9589 331° Northwest 430 495 22,000 -120 Descending Cleveland Center
10:54AM 41.9775 -78.0303 332° Northwest 435 501 22,000 -420 Level Cleveland Center
10:55AM 42.0814 -78.1044 332° Northwest 435 501 21,200 -1,860 Descending Cleveland Center
10:56AM 42.1928 -78.1506 343° North 421 484 18,300 -2,100 Descending Cleveland Center
10:57AM 42.3058 -78.1742 351° North 415 478 17,000 -1,800 Descending Cleveland Center
10:58AM 42.4167 -78.1953 352° North 410 472 14,800 -2,460 Descending Cleveland Center
10:59AM 42.5097 -78.2511 336° Northwest 375 432 12,100 -2,100 Descending Cleveland Center
11:00AM 42.5822 -78.3331 320° Northwest 360 414 10,700 -1,500 Descending Cleveland Center
11:01AM 42.6481 -78.4039 322° Northwest 328 377 9,100 -1,920 Descending Cleveland Center
11:02AM 42.7281 -78.4436 340° North 305 351 6,900 -2,160 Descending Cleveland Center
11:03AM 42.8078 -78.4664 348° North 289 333 4,800 -1,500 Descending Cleveland Center
11:04AM 42.8850 -78.4778 354° North 273 314 3,900 -660 Descending Cleveland Center
11:05AM 42.9478 -78.4900 352° North 249 287 3,500 -900 Descending Cleveland Center
11:06AM 43.0000 -78.4997 352° North 225 259 2,200 -600 Descending Cleveland Center
11:07AM 43.0364 -78.5608 309° West 203 234 2,300 60 Climbing Cleveland Center